Terminal Aerodrome Forecast
Issued by NWS

Home | Current Version | Previous Version | Text Only | Print | Product List | Glossary On
Versions: 1 2 3 4 5 6 7 8 9 10 11 12 13 14 15 16 17 18 19 20
000
FTUS44 KTSA 191100 AAB
TAFBVO
TAF AMD
KBVO 191104Z 1911/2006 00000KT 5SM BR OVC004
      TEMPO 1912/1915 5SM BKN008
     FM191500 16008KT P6SM SCT040
     FM200100 00000KT P6SM SCT250=

USA.gov is the U.S. government's official web portal to all federal, state and local government web resources and services.